sensor_id;sensor_type;location;lat;lon;timestamp;pressure;altitude;pressure_sealevel;temperature;humidity
42671;BME280;28283;55.426;37.756;2023-08-08T00:02:01;98639.63;;;23.03;58.14
42671;BME280;28283;55.426;37.756;2023-08-08T00:07:02;98623.34;;;22.93;58.33
42671;BME280;28283;55.426;37.756;2023-08-08T00:12:02;98621.19;;;22.90;58.47
42671;BME280;28283;55.426;37.756;2023-08-08T00:17:03;98610.44;;;22.93;58.82
42671;BME280;28283;55.426;37.756;2023-08-08T00:22:03;98602.72;;;22.81;58.70
42671;BME280;28283;55.426;37.756;2023-08-08T00:27:04;98586.56;;;22.80;58.64
42671;BME280;28283;55.426;37.756;2023-08-08T00:32:04;98569.34;;;22.79;59.02
42671;BME280;28283;55.426;37.756;2023-08-08T00:37:05;98572.28;;;22.83;59.69
42671;BME280;28283;55.426;37.756;2023-08-08T00:42:05;98558.53;;;22.36;60.32
42671;BME280;28283;55.426;37.756;2023-08-08T00:47:09;98551.00;;;22.28;61.07
42671;BME280;28283;55.426;37.756;2023-08-08T00:52:10;98579.75;;;22.06;61.70
42671;BME280;28283;55.426;37.756;2023-08-08T00:57:11;98560.44;;;21.98;62.68
42671;BME280;28283;55.426;37.756;2023-08-08T01:02:12;98570.25;;;21.80;63.42
42671;BME280;28283;55.426;37.756;2023-08-08T01:12:16;98543.88;;;21.70;63.87
42671;BME280;28283;55.426;37.756;2023-08-08T01:17:17;98541.72;;;21.67;63.83
42671;BME280;28283;55.426;37.756;2023-08-08T01:22:23;98550.44;;;21.69;64.09
42671;BME280;28283;55.426;37.756;2023-08-08T01:27:25;98526.63;;;21.69;64.22
42671;BME280;28283;55.426;37.756;2023-08-08T01:32:25;98536.88;;;21.59;64.30
42671;BME280;28283;55.426;37.756;2023-08-08T01:37:32;98548.72;;;21.54;64.36
42671;BME280;28283;55.426;37.756;2023-08-08T01:42:36;98557.44;;;21.56;64.45
42671;BME280;28283;55.426;37.756;2023-08-08T01:47:36;98562.16;;;21.50;64.17
42671;BME280;28283;55.426;37.756;2023-08-08T01:52:36;98565.22;;;21.44;64.30
42671;BME280;28283;55.426;37.756;2023-08-08T01:57:37;98571.03;;;21.37;64.35
42671;BME280;28283;55.426;37.756;2023-08-08T02:02:37;98560.75;;;21.29;64.58
42671;BME280;28283;55.426;37.756;2023-08-08T02:07:38;98567.97;;;21.20;64.86
42671;BME280;28283;55.426;37.756;2023-08-08T02:12:38;98565.28;;;21.14;64.77
42671;BME280;28283;55.426;37.756;2023-08-08T02:17:39;98567.50;;;21.12;65.19
42671;BME280;28283;55.426;37.756;2023-08-08T02:22:40;98564.38;;;21.19;64.85
42671;BME280;28283;55.426;37.756;2023-08-08T02:27:40;98569.34;;;21.17;64.83
42671;BME280;28283;55.426;37.756;2023-08-08T02:32:41;98564.75;;;21.12;64.86
42671;BME280;28283;55.426;37.756;2023-08-08T02:37:42;98564.47;;;21.14;65.02
42671;BME280;28283;55.426;37.756;2023-08-08T02:42:42;98574.03;;;21.11;64.96
42671;BME280;28283;55.426;37.756;2023-08-08T02:47:43;98569.38;;;21.12;64.90
42671;BME280;28283;55.426;37.756;2023-08-08T02:52:43;98573.19;;;21.16;65.26
42671;BME280;28283;55.426;37.756;2023-08-08T02:57:44;98563.88;;;21.17;65.07
42671;BME280;28283;55.426;37.756;2023-08-08T03:02:44;98570.41;;;21.21;65.50
42671;BME280;28283;55.426;37.756;2023-08-08T03:07:45;98574.69;;;21.27;65.55
42671;BME280;28283;55.426;37.756;2023-08-08T03:12:45;98569.84;;;21.19;65.55
42671;BME280;28283;55.426;37.756;2023-08-08T03:17:46;98560.56;;;21.20;65.50
42671;BME280;28283;55.426;37.756;2023-08-08T03:22:47;98568.66;;;21.30;65.70
42671;BME280;28283;55.426;37.756;2023-08-08T03:27:47;98563.75;;;21.27;65.64
42671;BME280;28283;55.426;37.756;2023-08-08T03:32:47;98575.63;;;21.17;65.53
42671;BME280;28283;55.426;37.756;2023-08-08T03:37:48;98586.72;;;21.26;65.61
42671;BME280;28283;55.426;37.756;2023-08-08T03:42:48;98593.66;;;21.19;65.53
42671;BME280;28283;55.426;37.756;2023-08-08T03:47:49;98596.31;;;21.24;65.75
42671;BME280;28283;55.426;37.756;2023-08-08T03:52:50;98599.34;;;21.22;66.20
42671;BME280;28283;55.426;37.756;2023-08-08T03:57:50;98609.91;;;21.05;66.84
42671;BME280;28283;55.426;37.756;2023-08-08T04:02:50;98607.53;;;20.98;67.15
42671;BME280;28283;55.426;37.756;2023-08-08T04:07:51;98599.66;;;20.91;67.32
42671;BME280;28283;55.426;37.756;2023-08-08T04:12:51;98602.88;;;20.98;67.72
42671;BME280;28283;55.426;37.756;2023-08-08T04:17:52;98605.97;;;20.87;68.06
42671;BME280;28283;55.426;37.756;2023-08-08T04:22:52;98610.94;;;20.79;68.32
42671;BME280;28283;55.426;37.756;2023-08-08T04:27:53;98607.16;;;20.75;69.21
42671;BME280;28283;55.426;37.756;2023-08-08T04:32:53;98612.78;;;20.55;69.98
42671;BME280;28283;55.426;37.756;2023-08-08T04:37:54;98606.47;;;20.54;69.95
42671;BME280;28283;55.426;37.756;2023-08-08T04:42:55;98614.91;;;20.58;70.05
42671;BME280;28283;55.426;37.756;2023-08-08T04:47:56;98620.09;;;20.59;70.14
42671;BME280;28283;55.426;37.756;2023-08-08T04:52:56;98618.41;;;20.69;70.86
42671;BME280;28283;55.426;37.756;2023-08-08T04:57:56;98621.19;;;20.64;70.68
42671;BME280;28283;55.426;37.756;2023-08-08T05:02:57;98620.06;;;20.70;70.60
42671;BME280;28283;55.426;37.756;2023-08-08T05:07:57;98606.25;;;20.85;70.27
42671;BME280;28283;55.426;37.756;2023-08-08T05:12:58;98619.50;;;21.02;69.73
42671;BME280;28283;55.426;37.756;2023-08-08T05:17:59;98626.69;;;21.22;69.18
42671;BME280;28283;55.426;37.756;2023-08-08T05:22:59;98629.16;;;21.48;69.03
42671;BME280;28283;55.426;37.756;2023-08-08T05:28:00;98637.78;;;21.84;68.95
42671;BME280;28283;55.426;37.756;2023-08-08T05:33:00;98637.09;;;22.36;67.92
42671;BME280;28283;55.426;37.756;2023-08-08T05:43:01;98635.38;;;22.78;66.74
42671;BME280;28283;55.426;37.756;2023-08-08T05:48:01;98628.25;;;22.77;66.33
42671;BME280;28283;55.426;37.756;2023-08-08T05:53:01;98633.44;;;22.78;66.03
42671;BME280;28283;55.426;37.756;2023-08-08T05:58:02;98638.56;;;22.66;66.32
42671;BME280;28283;55.426;37.756;2023-08-08T06:03:04;98643.91;;;22.76;66.12
42671;BME280;28283;55.426;37.756;2023-08-08T06:08:04;98643.44;;;22.88;65.63
42671;BME280;28283;55.426;37.756;2023-08-08T06:13:07;98643.88;;;22.95;65.63
42671;BME280;28283;55.426;37.756;2023-08-08T06:18:08;98636.47;;;22.96;65.40
42671;BME280;28283;55.426;37.756;2023-08-08T06:23:08;98638.19;;;22.92;65.47
42671;BME280;28283;55.426;37.756;2023-08-08T06:28:09;98647.03;;;23.02;65.28
42671;BME280;28283;55.426;37.756;2023-08-08T06:33:11;98658.97;;;23.12;64.83
42671;BME280;28283;55.426;37.756;2023-08-08T06:38:12;98650.09;;;23.48;64.35
42671;BME280;28283;55.426;37.756;2023-08-08T06:43:12;98654.28;;;24.00;63.44
42671;BME280;28283;55.426;37.756;2023-08-08T06:48:13;98658.47;;;23.98;62.56
42671;BME280;28283;55.426;37.756;2023-08-08T06:53:14;98645.25;;;23.86;62.96
42671;BME280;28283;55.426;37.756;2023-08-08T06:58:14;98649.97;;;24.08;62.72
42671;BME280;28283;55.426;37.756;2023-08-08T07:03:14;98656.00;;;24.10;62.74
42671;BME280;28283;55.426;37.756;2023-08-08T07:08:15;98661.44;;;24.24;62.58
42671;BME280;28283;55.426;37.756;2023-08-08T07:13:15;98665.06;;;24.47;62.09
42671;BME280;28283;55.426;37.756;2023-08-08T07:18:16;98669.63;;;24.66;61.71
42671;BME280;28283;55.426;37.756;2023-08-08T07:23:17;98669.56;;;24.80;61.57
42671;BME280;28283;55.426;37.756;2023-08-08T07:28:17;98669.13;;;24.86;61.25
42671;BME280;28283;55.426;37.756;2023-08-08T07:33:18;98665.22;;;24.79;60.94
42671;BME280;28283;55.426;37.756;2023-08-08T07:38:18;98670.88;;;24.82;60.67
42671;BME280;28283;55.426;37.756;2023-08-08T07:43:19;98686.44;;;24.64;61.07
42671;BME280;28283;55.426;37.756;2023-08-08T07:48:20;98678.69;;;24.66;61.18
42671;BME280;28283;55.426;37.756;2023-08-08T07:53:21;98695.34;;;24.92;61.08
42671;BME280;28283;55.426;37.756;2023-08-08T07:58:21;98678.81;;;25.29;59.58
42671;BME280;28283;55.426;37.756;2023-08-08T08:03:26;98689.16;;;25.55;58.61
42671;BME280;28283;55.426;37.756;2023-08-08T08:08:26;98691.19;;;25.40;59.27
42671;BME280;28283;55.426;37.756;2023-08-08T08:13:26;98691.28;;;25.58;59.63
42671;BME280;28283;55.426;37.756;2023-08-08T08:18:27;98698.69;;;25.88;59.17
42671;BME280;28283;55.426;37.756;2023-08-08T08:23:28;98708.63;;;25.98;58.39
42671;BME280;28283;55.426;37.756;2023-08-08T08:28:30;98705.13;;;25.84;58.96
42671;BME280;28283;55.426;37.756;2023-08-08T08:33:30;98698.94;;;26.01;58.50
42671;BME280;28283;55.426;37.756;2023-08-08T08:38:31;98707.28;;;26.44;57.31
42671;BME280;28283;55.426;37.756;2023-08-08T08:43:31;98710.44;;;26.03;57.66
42671;BME280;28283;55.426;37.756;2023-08-08T08:48:32;98705.22;;;26.01;58.17
42671;BME280;28283;55.426;37.756;2023-08-08T08:53:32;98710.34;;;26.34;57.49
42671;BME280;28283;55.426;37.756;2023-08-08T08:58:35;98709.25;;;26.70;57.45
42671;BME280;28283;55.426;37.756;2023-08-08T09:03:35;98718.66;;;27.04;56.94
42671;BME280;28283;55.426;37.756;2023-08-08T09:08:36;98710.72;;;27.20;56.93
42671;BME280;28283;55.426;37.756;2023-08-08T09:13:37;98700.31;;;27.34;56.66
42671;BME280;28283;55.426;37.756;2023-08-08T09:18:38;98705.63;;;27.57;56.42
42671;BME280;28283;55.426;37.756;2023-08-08T09:23:39;98715.94;;;27.77;54.65
42671;BME280;28283;55.426;37.756;2023-08-08T09:28:40;98719.66;;;27.81;53.71
42671;BME280;28283;55.426;37.756;2023-08-08T09:33:40;98719.13;;;27.88;55.27
42671;BME280;28283;55.426;37.756;2023-08-08T09:38:40;98709.91;;;27.93;53.46
42671;BME280;28283;55.426;37.756;2023-08-08T09:43:44;98714.94;;;28.21;54.83
42671;BME280;28283;55.426;37.756;2023-08-08T09:48:44;98714.84;;;28.38;52.03
42671;BME280;28283;55.426;37.756;2023-08-08T09:53:45;98715.91;;;27.86;52.22
42671;BME280;28283;55.426;37.756;2023-08-08T09:58:47;98717.88;;;27.30;53.86
42671;BME280;28283;55.426;37.756;2023-08-08T10:03:48;98735.06;;;27.00;54.66
42671;BME280;28283;55.426;37.756;2023-08-08T10:08:50;98740.56;;;27.00;55.18
42671;BME280;28283;55.426;37.756;2023-08-08T10:13:52;98731.69;;;27.30;55.15
42671;BME280;28283;55.426;37.756;2023-08-08T10:18:58;98723.00;;;27.49;54.30
42671;BME280;28283;55.426;37.756;2023-08-08T10:24:05;98729.22;;;27.11;55.33
42671;BME280;28283;55.426;37.756;2023-08-08T10:29:06;98728.59;;;27.05;55.52
42671;BME280;28283;55.426;37.756;2023-08-08T10:34:07;98737.19;;;27.03;55.87
42671;BME280;28283;55.426;37.756;2023-08-08T10:39:10;98736.19;;;27.26;56.15
42671;BME280;28283;55.426;37.756;2023-08-08T10:44:11;98737.56;;;27.67;54.52
42671;BME280;28283;55.426;37.756;2023-08-08T10:49:11;98744.81;;;27.15;55.95
42671;BME280;28283;55.426;37.756;2023-08-08T10:54:13;98753.25;;;27.01;56.11
42671;BME280;28283;55.426;37.756;2023-08-08T10:59:15;98749.03;;;27.39;55.05
42671;BME280;28283;55.426;37.756;2023-08-08T11:04:20;98764.91;;;26.98;56.14
42671;BME280;28283;55.426;37.756;2023-08-08T11:09:22;98763.94;;;26.77;56.83
42671;BME280;28283;55.426;37.756;2023-08-08T11:14:22;98778.78;;;26.50;57.74
42671;BME280;28283;55.426;37.756;2023-08-08T11:19:23;98772.75;;;26.39;58.63
42671;BME280;28283;55.426;37.756;2023-08-08T11:24:24;98773.59;;;26.48;58.50
42671;BME280;28283;55.426;37.756;2023-08-08T11:29:25;98781.31;;;26.28;58.84
42671;BME280;28283;55.426;37.756;2023-08-08T11:34:31;98784.00;;;26.11;59.39
42671;BME280;28283;55.426;37.756;2023-08-08T11:39:32;98777.56;;;26.24;59.46
42671;BME280;28283;55.426;37.756;2023-08-08T11:44:32;98778.81;;;26.58;58.46
42671;BME280;28283;55.426;37.756;2023-08-08T11:49:39;98776.50;;;26.52;58.47
42671;BME280;28283;55.426;37.756;2023-08-08T11:54:40;98771.91;;;26.87;58.24
42671;BME280;28283;55.426;37.756;2023-08-08T11:59:41;98766.22;;;27.27;57.26
42671;BME280;28283;55.426;37.756;2023-08-08T12:04:44;98768.25;;;27.74;57.77
42671;BME280;28283;55.426;37.756;2023-08-08T12:09:49;98759.91;;;28.89;54.60
42671;BME280;28283;55.426;37.756;2023-08-08T12:14:49;98766.78;;;29.25;52.98
42671;BME280;28283;55.426;37.756;2023-08-08T12:19:49;98760.56;;;29.07;54.55
42671;BME280;28283;55.426;37.756;2023-08-08T12:24:50;98769.41;;;29.01;55.17
42671;BME280;28283;55.426;37.756;2023-08-08T12:29:50;98765.59;;;29.47;54.44
42671;BME280;28283;55.426;37.756;2023-08-08T12:34:51;98775.56;;;30.06;53.91
42671;BME280;28283;55.426;37.756;2023-08-08T12:39:52;98773.22;;;30.82;50.50
42671;BME280;28283;55.426;37.756;2023-08-08T12:44:53;98771.13;;;31.32;52.38
42671;BME280;28283;55.426;37.756;2023-08-08T12:49:53;98776.41;;;31.50;46.40
42671;BME280;28283;55.426;37.756;2023-08-08T12:54:54;98777.06;;;30.78;48.74
42671;BME280;28283;55.426;37.756;2023-08-08T12:59:54;98771.44;;;30.50;49.83
42671;BME280;28283;55.426;37.756;2023-08-08T13:04:55;98770.25;;;30.63;48.24
42671;BME280;28283;55.426;37.756;2023-08-08T13:09:55;98772.13;;;30.47;48.37
42671;BME280;28283;55.426;37.756;2023-08-08T13:14:55;98766.00;;;30.53;49.16
42671;BME280;28283;55.426;37.756;2023-08-08T13:19:56;98758.47;;;30.66;49.02
42671;BME280;28283;55.426;37.756;2023-08-08T13:24:57;98771.53;;;30.53;49.35
42671;BME280;28283;55.426;37.756;2023-08-08T13:29:57;98768.06;;;30.32;49.62
42671;BME280;28283;55.426;37.756;2023-08-08T13:34:57;98762.28;;;30.61;47.04
42671;BME280;28283;55.426;37.756;2023-08-08T13:39:58;98766.31;;;29.90;47.88
42671;BME280;28283;55.426;37.756;2023-08-08T13:44:58;98765.63;;;29.60;48.64
42671;BME280;28283;55.426;37.756;2023-08-08T13:49:59;98762.78;;;29.35;49.79
42671;BME280;28283;55.426;37.756;2023-08-08T13:54:59;98750.44;;;29.33;49.90
42671;BME280;28283;55.426;37.756;2023-08-08T14:00:00;98752.41;;;29.11;50.34
42671;BME280;28283;55.426;37.756;2023-08-08T14:05:00;98760.34;;;29.12;50.52
42671;BME280;28283;55.426;37.756;2023-08-08T14:10:03;98763.06;;;28.79;51.30
42671;BME280;28283;55.426;37.756;2023-08-08T14:15:04;98768.19;;;29.10;51.24
42671;BME280;28283;55.426;37.756;2023-08-08T14:20:05;98740.00;;;29.17;50.88
42671;BME280;28283;55.426;37.756;2023-08-08T14:25:05;98767.06;;;29.45;50.20
42671;BME280;28283;55.426;37.756;2023-08-08T14:30:06;98773.66;;;29.40;50.56
42671;BME280;28283;55.426;37.756;2023-08-08T14:35:07;98771.56;;;29.70;49.90
42671;BME280;28283;55.426;37.756;2023-08-08T14:40:08;98770.97;;;29.31;50.95
42671;BME280;28283;55.426;37.756;2023-08-08T14:45:09;98780.41;;;29.64;49.09
42671;BME280;28283;55.426;37.756;2023-08-08T14:50:10;98779.19;;;29.40;49.91
42671;BME280;28283;55.426;37.756;2023-08-08T14:55:10;98778.16;;;28.82;51.42
42671;BME280;28283;55.426;37.756;2023-08-08T15:00:11;98774.69;;;28.93;51.67
42671;BME280;28283;55.426;37.756;2023-08-08T15:05:12;98791.41;;;28.46;52.37
42671;BME280;28283;55.426;37.756;2023-08-08T15:10:13;98786.28;;;28.27;53.33
42671;BME280;28283;55.426;37.756;2023-08-08T15:15:13;98791.38;;;28.16;53.23
42671;BME280;28283;55.426;37.756;2023-08-08T15:20:16;98785.66;;;28.22;53.36
42671;BME280;28283;55.426;37.756;2023-08-08T15:25:17;98786.50;;;28.13;54.09
42671;BME280;28283;55.426;37.756;2023-08-08T15:30:17;98793.38;;;27.90;52.86
42671;BME280;28283;55.426;37.756;2023-08-08T15:35:18;98809.41;;;27.40;54.38
42671;BME280;28283;55.426;37.756;2023-08-08T15:40:18;98789.09;;;27.28;54.42
42671;BME280;28283;55.426;37.756;2023-08-08T15:45:18;98812.44;;;27.04;54.55
42671;BME280;28283;55.426;37.756;2023-08-08T15:50:19;98817.47;;;26.76;55.41
42671;BME280;28283;55.426;37.756;2023-08-08T15:55:19;98817.38;;;26.58;55.08
42671;BME280;28283;55.426;37.756;2023-08-08T16:00:20;98826.66;;;26.22;56.33
42671;BME280;28283;55.426;37.756;2023-08-08T16:05:20;98823.59;;;26.24;56.00
42671;BME280;28283;55.426;37.756;2023-08-08T16:10:22;98834.22;;;26.08;55.96
42671;BME280;28283;55.426;37.756;2023-08-08T16:15:22;98850.50;;;25.96;55.95
42671;BME280;28283;55.426;37.756;2023-08-08T16:20:24;98855.22;;;25.95;55.74
42671;BME280;28283;55.426;37.756;2023-08-08T16:25:25;98839.41;;;26.09;55.22
42671;BME280;28283;55.426;37.756;2023-08-08T16:30:25;98863.25;;;26.14;55.06
42671;BME280;28283;55.426;37.756;2023-08-08T16:35:26;98873.94;;;26.16;55.28
42671;BME280;28283;55.426;37.756;2023-08-08T16:40:26;98880.13;;;26.21;54.72
42671;BME280;28283;55.426;37.756;2023-08-08T16:45:26;98885.72;;;26.07;54.99
42671;BME280;28283;55.426;37.756;2023-08-08T16:50:27;98848.63;;;26.05;53.83
42671;BME280;28283;55.426;37.756;2023-08-08T16:55:28;98868.69;;;25.60;54.81
42671;BME280;28283;55.426;37.756;2023-08-08T17:00:29;98843.41;;;24.99;55.84
42671;BME280;28283;55.426;37.756;2023-08-08T17:05:29;98900.53;;;24.88;56.55
42671;BME280;28283;55.426;37.756;2023-08-08T17:10:29;98899.94;;;24.64;57.23
42671;BME280;28283;55.426;37.756;2023-08-08T17:15:30;98917.50;;;24.49;57.23
42671;BME280;28283;55.426;37.756;2023-08-08T17:20:30;98904.66;;;24.44;57.13
42671;BME280;28283;55.426;37.756;2023-08-08T17:25:31;98921.63;;;24.18;57.83
42671;BME280;28283;55.426;37.756;2023-08-08T17:30:31;98932.03;;;24.02;58.84
42671;BME280;28283;55.426;37.756;2023-08-08T17:35:32;98947.47;;;23.79;59.99
42671;BME280;28283;55.426;37.756;2023-08-08T17:40:33;98948.34;;;23.80;59.83
42671;BME280;28283;55.426;37.756;2023-08-08T17:45:33;98946.59;;;23.65;60.09
42671;BME280;28283;55.426;37.756;2023-08-08T17:50:34;98965.81;;;23.46;60.33
42671;BME280;28283;55.426;37.756;2023-08-08T17:55:34;98968.69;;;23.36;61.05
42671;BME280;28283;55.426;37.756;2023-08-08T18:00:35;98975.44;;;23.24;61.03
42671;BME280;28283;55.426;37.756;2023-08-08T18:05:35;98970.88;;;23.15;61.25
42671;BME280;28283;55.426;37.756;2023-08-08T18:10:36;98960.28;;;23.08;61.16
42671;BME280;28283;55.426;37.756;2023-08-08T18:15:37;98973.03;;;22.94;61.45
42671;BME280;28283;55.426;37.756;2023-08-08T18:20:38;98967.91;;;22.87;61.45
42671;BME280;28283;55.426;37.756;2023-08-08T18:25:39;98973.25;;;22.73;61.96
42671;BME280;28283;55.426;37.756;2023-08-08T18:30:42;98967.06;;;22.62;62.44
42671;BME280;28283;55.426;37.756;2023-08-08T18:35:44;98963.03;;;22.55;62.96
42671;BME280;28283;55.426;37.756;2023-08-08T18:40:44;98963.69;;;22.41;63.73
42671;BME280;28283;55.426;37.756;2023-08-08T18:45:45;98967.13;;;22.23;64.01
42671;BME280;28283;55.426;37.756;2023-08-08T18:50:45;98978.16;;;22.12;64.43
42671;BME280;28283;55.426;37.756;2023-08-08T18:55:46;98969.47;;;22.05;64.73
42671;BME280;28283;55.426;37.756;2023-08-08T19:00:47;98976.31;;;22.08;64.44
42671;BME280;28283;55.426;37.756;2023-08-08T19:05:48;98975.25;;;22.04;64.57
42671;BME280;28283;55.426;37.756;2023-08-08T19:10:48;98978.56;;;22.01;64.83
42671;BME280;28283;55.426;37.756;2023-08-08T19:15:51;98982.03;;;22.11;63.96
42671;BME280;28283;55.426;37.756;2023-08-08T19:20:53;98978.41;;;22.16;63.65
42671;BME280;28283;55.426;37.756;2023-08-08T19:26:00;98978.16;;;22.12;63.65
42671;BME280;28283;55.426;37.756;2023-08-08T19:31:00;98979.31;;;22.06;63.98
42671;BME280;28283;55.426;37.756;2023-08-08T19:36:01;98981.03;;;21.97;64.33
42671;BME280;28283;55.426;37.756;2023-08-08T19:41:04;98973.06;;;22.01;64.12
42671;BME280;28283;55.426;37.756;2023-08-08T19:46:04;98968.13;;;22.03;64.18
42671;BME280;28283;55.426;37.756;2023-08-08T19:51:07;98966.00;;;21.95;64.23
42671;BME280;28283;55.426;37.756;2023-08-08T19:56:07;98960.59;;;21.89;64.48
42671;BME280;28283;55.426;37.756;2023-08-08T20:01:08;98955.59;;;21.97;64.29
42671;BME280;28283;55.426;37.756;2023-08-08T20:06:08;98967.94;;;21.89;64.60
42671;BME280;28283;55.426;37.756;2023-08-08T20:11:09;98966.63;;;21.86;64.70
42671;BME280;28283;55.426;37.756;2023-08-08T20:16:10;98965.63;;;21.72;65.27
42671;BME280;28283;55.426;37.756;2023-08-08T20:21:11;98961.63;;;21.54;65.51
42671;BME280;28283;55.426;37.756;2023-08-08T20:26:11;98963.59;;;21.48;65.70
42671;BME280;28283;55.426;37.756;2023-08-08T20:31:12;98964.13;;;21.50;65.69
42671;BME280;28283;55.426;37.756;2023-08-08T20:36:13;98960.56;;;21.45;65.88
42671;BME280;28283;55.426;37.756;2023-08-08T20:41:13;98965.25;;;21.39;66.04
42671;BME280;28283;55.426;37.756;2023-08-08T20:46:14;98965.59;;;21.22;66.44
42671;BME280;28283;55.426;37.756;2023-08-08T20:51:15;98966.22;;;21.09;66.83
42671;BME280;28283;55.426;37.756;2023-08-08T20:56:15;98946.59;;;20.96;67.57
42671;BME280;28283;55.426;37.756;2023-08-08T21:01:16;98946.06;;;20.89;68.14
42671;BME280;28283;55.426;37.756;2023-08-08T21:06:16;98941.41;;;20.95;67.89
42671;BME280;28283;55.426;37.756;2023-08-08T21:11:16;98941.41;;;20.90;68.11
42671;BME280;28283;55.426;37.756;2023-08-08T21:16:17;98950.69;;;20.89;68.15
42671;BME280;28283;55.426;37.756;2023-08-08T21:21:17;98947.16;;;20.83;68.52
42671;BME280;28283;55.426;37.756;2023-08-08T21:26:18;98955.06;;;20.90;68.63
42671;BME280;28283;55.426;37.756;2023-08-08T21:31:18;98964.66;;;20.82;68.58
42671;BME280;28283;55.426;37.756;2023-08-08T21:36:19;98948.31;;;20.67;69.16
42671;BME280;28283;55.426;37.756;2023-08-08T21:41:19;98958.94;;;20.73;69.00
42671;BME280;28283;55.426;37.756;2023-08-08T21:46:20;98957.88;;;20.49;69.77
42671;BME280;28283;55.426;37.756;2023-08-08T21:51:20;98951.88;;;20.41;69.94
42671;BME280;28283;55.426;37.756;2023-08-08T21:56:21;98953.25;;;20.44;70.26
42671;BME280;28283;55.426;37.756;2023-08-08T22:01:21;98954.31;;;20.58;69.83
42671;BME280;28283;55.426;37.756;2023-08-08T22:06:22;98949.16;;;20.62;69.48
42671;BME280;28283;55.426;37.756;2023-08-08T22:11:22;98951.31;;;20.65;69.50
42671;BME280;28283;55.426;37.756;2023-08-08T22:16:22;98967.72;;;20.55;70.19
42671;BME280;28283;55.426;37.756;2023-08-08T22:21:23;98950.81;;;20.37;70.85
42671;BME280;28283;55.426;37.756;2023-08-08T22:26:23;98953.81;;;20.41;70.63
42671;BME280;28283;55.426;37.756;2023-08-08T22:31:24;98945.34;;;20.43;70.70
42671;BME280;28283;55.426;37.756;2023-08-08T22:36:26;98941.78;;;20.42;70.68
42671;BME280;28283;55.426;37.756;2023-08-08T22:41:26;98952.72;;;20.32;70.86
42671;BME280;28283;55.426;37.756;2023-08-08T22:46:26;98943.72;;;20.26;71.29
42671;BME280;28283;55.426;37.756;2023-08-08T22:51:27;98954.66;;;20.16;71.64
42671;BME280;28283;55.426;37.756;2023-08-08T22:56:28;98951.91;;;20.11;72.04
42671;BME280;28283;55.426;37.756;2023-08-08T23:01:28;98949.72;;;20.13;71.96
42671;BME280;28283;55.426;37.756;2023-08-08T23:06:29;98942.38;;;20.03;72.35
42671;BME280;28283;55.426;37.756;2023-08-08T23:11:29;98946.19;;;20.02;72.26
42671;BME280;28283;55.426;37.756;2023-08-08T23:16:30;98939.09;;;19.96;72.65
42671;BME280;28283;55.426;37.756;2023-08-08T23:21:30;98942.38;;;19.88;72.93
42671;BME280;28283;55.426;37.756;2023-08-08T23:26:31;98932.00;;;19.95;72.79
42671;BME280;28283;55.426;37.756;2023-08-08T23:31:32;98936.94;;;20.08;71.97
42671;BME280;28283;55.426;37.756;2023-08-08T23:36:33;98933.91;;;19.99;72.15
42671;BME280;28283;55.426;37.756;2023-08-08T23:41:33;98932.81;;;19.95;72.70
42671;BME280;28283;55.426;37.756;2023-08-08T23:46:34;98932.53;;;19.92;72.81
42671;BME280;28283;55.426;37.756;2023-08-08T23:51:34;98924.91;;;19.83;73.22
42671;BME280;28283;55.426;37.756;2023-08-08T23:56:36;98934.16;;;19.72;73.64
